createdAt,value
2017-05-10T00:00:54.466Z,3.78
2017-05-10T00:02:04.735Z,3.81
2017-05-10T00:03:14.690Z,3.82
2017-05-10T00:04:24.960Z,3.81
2017-05-10T00:05:34.913Z,3.77
2017-05-10T00:06:44.859Z,3.76
2017-05-10T00:07:55.157Z,3.84
2017-05-10T00:09:05.417Z,3.81
2017-05-10T00:10:15.369Z,3.77
2017-05-10T00:11:25.624Z,3.82
2017-05-10T00:12:35.888Z,3.84
2017-05-10T00:13:45.527Z,3.84
2017-05-10T00:14:55.787Z,3.81
2017-05-10T00:16:06.047Z,3.86
2017-05-10T00:17:15.679Z,3.81
2017-05-10T00:18:25.943Z,3.78
2017-05-10T00:19:36.197Z,3.76
2017-05-10T00:20:45.834Z,3.78
2017-05-10T00:21:56.101Z,3.78
2017-05-10T00:23:06.399Z,3.74
2017-05-10T00:24:16.338Z,3.74
2017-05-10T00:25:26.603Z,3.7
2017-05-10T00:26:36.864Z,3.71
2017-05-10T00:27:46.808Z,3.7
2017-05-10T00:28:57.085Z,3.7
2017-05-10T00:30:07.035Z,3.74
2017-05-10T00:31:17.296Z,3.64
2017-05-10T00:32:27.559Z,3.7
2017-05-10T00:33:37.516Z,3.68
2017-05-10T00:34:47.776Z,3.71
2017-05-10T00:35:58.032Z,3.74
2017-05-10T00:37:08.288Z,3.7
2017-05-10T00:38:18.549Z,3.67
2017-05-10T00:39:28.809Z,3.7
2017-05-10T00:40:38.755Z,3.68
2017-05-10T00:41:49.007Z,3.59
2017-05-10T00:42:59.270Z,3.73
2017-05-10T00:44:09.540Z,3.66
2017-05-10T00:45:19.487Z,3.73
2017-05-10T00:46:29.752Z,3.66
2017-05-10T00:47:39.701Z,3.68
2017-05-10T00:48:49.654Z,3.76
2017-05-10T00:49:59.932Z,3.76
2017-05-10T00:51:10.191Z,3.74
2017-05-10T00:52:20.446Z,3.84
2017-05-10T00:53:30.708Z,3.77
2017-05-10T00:54:40.966Z,3.76
2017-05-10T00:55:51.224Z,3.74
2017-05-10T00:57:01.479Z,3.61
2017-05-10T00:58:11.423Z,3.55
2017-05-10T00:59:21.684Z,3.59
2017-05-10T01:00:31.632Z,3.63
2017-05-10T01:01:41.573Z,3.64
2017-05-10T01:02:51.836Z,3.59
2017-05-10T01:04:02.096Z,3.53
2017-05-10T01:05:12.352Z,3.55
2017-05-10T01:06:22.645Z,3.49
2017-05-10T01:07:32.899Z,3.46
2017-05-10T01:08:42.848Z,3.37
2017-05-10T01:09:53.109Z,3.46
2017-05-10T01:11:03.374Z,3.37
2017-05-10T01:12:13.642Z,3.26
2017-05-10T01:13:23.594Z,3.31
2017-05-10T01:14:33.846Z,3.13
2017-05-10T01:15:43.167Z,3.13
2017-05-10T01:16:53.422Z,3.13
2017-05-10T01:18:03.678Z,3.06
2017-05-10T01:19:13.933Z,3.13
2017-05-10T01:20:23.883Z,3.05
2017-05-10T01:21:34.141Z,3.06
2017-05-10T01:22:44.087Z,3.01
2017-05-10T01:23:54.034Z,3.09
2017-05-10T01:25:04.302Z,2.98
2017-05-10T01:26:14.555Z,3.01
2017-05-10T01:27:24.849Z,3
2017-05-10T01:28:35.110Z,2.98
2017-05-10T01:29:45.364Z,3.08
2017-05-10T01:30:54.991Z,3.09
2017-05-10T01:32:05.257Z,3.05
2017-05-10T01:33:15.220Z,3
2017-05-10T01:34:25.480Z,3.12
2017-05-10T01:35:35.422Z,3.12
2017-05-10T01:36:45.361Z,3.05
2017-05-10T01:37:55.628Z,3.18
2017-05-10T01:39:05.881Z,3.16
2017-05-10T01:40:16.136Z,3.21
2017-05-10T01:41:26.121Z,3.15
2017-05-10T01:42:36.383Z,3.16
2017-05-10T01:43:46.655Z,3.15
2017-05-10T01:44:56.926Z,3.27
2017-05-10T01:46:06.871Z,3.24
2017-05-10T01:47:16.826Z,3.16
2017-05-10T01:48:27.084Z,3.18
2017-05-10T01:49:37.341Z,3.15
2017-05-10T01:50:47.602Z,3.21
2017-05-10T01:51:57.552Z,3.21
2017-05-10T01:53:07.814Z,3.18
2017-05-10T01:54:17.764Z,3.13
2017-05-10T01:55:28.023Z,3.09
2017-05-10T01:56:38.286Z,3.19
2017-05-10T01:57:48.551Z,3.09
2017-05-10T01:58:58.815Z,3.16
2017-05-10T02:00:09.077Z,3.13
2017-05-10T02:01:19.329Z,3.13
2017-05-10T02:02:29.588Z,3.18
2017-05-10T02:03:39.865Z,3.19
2017-05-10T02:04:49.810Z,3.16
2017-05-10T02:05:59.764Z,3.16
2017-05-10T02:07:10.032Z,3.15
2017-05-10T02:08:20.291Z,3.11
2017-05-10T02:09:30.587Z,3.15
2017-05-10T02:10:40.858Z,3.13
2017-05-10T02:11:51.115Z,3.06
2017-05-10T02:13:01.373Z,3.13
2017-05-10T02:14:11.633Z,3.21
2017-05-10T02:15:21.892Z,3.13
2017-05-10T02:16:32.156Z,3.22
2017-05-10T02:17:42.416Z,3.16
2017-05-10T02:18:52.678Z,3.13
2017-05-10T02:20:02.623Z,3.13
2017-05-10T02:21:12.572Z,3.22
2017-05-10T02:22:22.828Z,3.27
2017-05-10T02:23:33.093Z,3.22
2017-05-10T02:24:43.360Z,3.21
2017-05-10T02:25:53.620Z,3.21
2017-05-10T02:27:03.873Z,3.34
2017-05-10T02:28:13.501Z,3.29
2017-05-10T02:29:23.450Z,3.24
2017-05-10T02:30:33.717Z,3.18
2017-05-10T02:31:43.980Z,3.27
2017-05-10T02:32:54.242Z,3.15
2017-05-10T02:34:04.199Z,3.21
2017-05-10T02:35:14.149Z,3.22
2017-05-10T02:36:24.092Z,3.19
2017-05-10T02:37:34.350Z,3.18
2017-05-10T02:38:44.611Z,3.22
2017-05-10T02:39:54.564Z,3.26
2017-05-10T02:41:04.825Z,3.12
2017-05-10T02:42:14.768Z,3.19
2017-05-10T02:43:25.027Z,3.24
2017-05-10T02:44:35.290Z,3.26
2017-05-10T02:45:45.550Z,3.18
2017-05-10T02:46:55.493Z,3.31
2017-05-10T02:48:05.771Z,3.24
2017-05-10T02:49:15.724Z,3.3
2017-05-10T02:50:25.986Z,3.19
2017-05-10T02:51:36.286Z,3.24
2017-05-10T02:52:46.236Z,3.27
2017-05-10T02:53:56.181Z,3.19
2017-05-10T02:55:08.321Z,3.18
2017-05-10T02:56:18.272Z,3.3
2017-05-10T02:57:28.529Z,3.19
2017-05-10T02:58:38.794Z,3.27
2017-05-10T02:59:49.061Z,3.21
2017-05-10T03:00:59.003Z,3.24
2017-05-10T03:02:09.278Z,3.26
2017-05-10T03:03:19.538Z,3.33
2017-05-10T03:04:29.798Z,3.19
2017-05-10T03:05:39.788Z,3.24
2017-05-10T03:06:50.047Z,3.24
2017-05-10T03:08:00.308Z,3.21
2017-05-10T03:09:10.258Z,3.24
2017-05-10T03:10:20.520Z,3.19
2017-05-10T03:11:30.776Z,3.34
2017-05-10T03:12:41.034Z,3.3
2017-05-10T03:13:51.296Z,3.31
2017-05-10T03:15:01.564Z,3.34
2017-05-10T03:16:11.824Z,3.33
2017-05-10T03:17:21.770Z,3.48
2017-05-10T03:18:32.033Z,3.34
2017-05-10T03:19:42.296Z,3.34
2017-05-10T03:20:52.246Z,3.3
2017-05-10T03:22:02.513Z,3.43
2017-05-10T03:23:12.462Z,3.46
2017-05-10T03:24:22.723Z,3.43
2017-05-10T03:25:32.983Z,3.48
2017-05-10T03:26:42.925Z,3.46
2017-05-10T03:27:53.191Z,3.41
2017-05-10T03:29:03.476Z,3.46
2017-05-10T03:30:13.109Z,3.4
2017-05-10T03:31:23.370Z,3.4
2017-05-10T03:32:33.630Z,3.43
2017-05-10T03:33:43.888Z,3.48
2017-05-10T03:34:54.169Z,3.49
2017-05-10T03:36:04.435Z,3.52
2017-05-10T03:37:14.689Z,3.5
2017-05-10T03:38:24.952Z,3.49
2017-05-10T03:39:35.212Z,3.48
2017-05-10T03:40:45.468Z,3.52
2017-05-10T03:41:55.724Z,3.46
2017-05-10T03:43:05.980Z,3.43
2017-05-10T03:44:15.611Z,3.45
2017-05-10T03:45:25.866Z,3.41
2017-05-10T03:46:36.133Z,3.43
2017-05-10T03:47:46.387Z,3.43
2017-05-10T03:48:56.657Z,3.46
2017-05-10T03:50:06.922Z,3.48
2017-05-10T03:51:16.867Z,3.43
2017-05-10T03:52:27.136Z,3.43
2017-05-10T03:53:37.093Z,3.49
2017-05-10T03:54:47.361Z,3.46
2017-05-10T03:55:57.650Z,3.4
2017-05-10T03:57:07.904Z,3.4
2017-05-10T03:58:18.164Z,3.43
2017-05-10T03:59:28.425Z,3.46
2017-05-10T04:00:38.684Z,3.4
2017-05-10T04:01:48.943Z,3.33
2017-05-10T04:02:59.201Z,3.34
2017-05-10T04:04:09.469Z,3.43
2017-05-10T04:05:19.733Z,3.4
2017-05-10T04:06:29.681Z,3.3
2017-05-10T04:07:39.941Z,3.31
2017-05-10T04:08:49.887Z,3.27
2017-05-10T04:10:00.212Z,3.21
2017-05-10T04:11:10.481Z,3.21
2017-05-10T04:12:20.777Z,3.22
2017-05-10T04:13:31.039Z,3.3
2017-05-10T04:14:40.362Z,3.24
2017-05-10T04:15:50.617Z,3.16
2017-05-10T04:17:00.888Z,3.22
2017-05-10T04:18:10.840Z,3.33
2017-05-10T04:19:20.787Z,3.29
2017-05-10T04:20:31.058Z,3.22
2017-05-10T04:21:41.323Z,3.26
2017-05-10T04:22:51.594Z,3.29
2017-05-10T04:24:01.854Z,3.26
2017-05-10T04:25:12.123Z,3.3
2017-05-10T04:26:22.377Z,3.34
2017-05-10T04:27:32.633Z,3.27
2017-05-10T04:28:42.898Z,3.4
2017-05-10T04:29:52.879Z,3.33
2017-05-10T04:31:03.138Z,3.4
2017-05-10T04:32:13.086Z,3.31
2017-05-10T04:33:23.358Z,3.37
2017-05-10T04:34:33.613Z,3.33
2017-05-10T04:35:43.862Z,3.36
2017-05-10T04:36:54.118Z,3.48
2017-05-10T04:38:04.060Z,3.46
2017-05-10T04:39:14.319Z,3.49
2017-05-10T04:40:24.578Z,3.45
2017-05-10T04:41:34.831Z,3.46
2017-05-10T04:42:45.085Z,3.41
2017-05-10T04:43:55.354Z,3.37
2017-05-10T04:45:05.299Z,3.43
2017-05-10T04:46:15.555Z,3.31
2017-05-10T04:47:25.816Z,3.41
2017-05-10T04:48:36.081Z,3.4
2017-05-10T04:49:46.038Z,3.36
2017-05-10T04:50:56.300Z,3.4
2017-05-10T04:52:06.563Z,3.33
2017-05-10T04:53:16.821Z,3.31
2017-05-10T04:54:27.096Z,3.37
2017-05-10T04:55:37.040Z,3.37
2017-05-10T04:56:46.737Z,3.41
2017-05-10T04:57:56.682Z,3.36
2017-05-10T04:59:06.968Z,3.43
2017-05-10T05:00:16.922Z,3.41
2017-05-10T05:01:27.202Z,3.46
2017-05-10T05:02:37.459Z,3.45
2017-05-10T05:03:47.713Z,3.48
2017-05-10T05:04:57.348Z,3.58
2017-05-10T05:06:07.606Z,3.61
2017-05-10T05:07:17.550Z,3.64
2017-05-10T05:08:27.845Z,3.61
2017-05-10T05:09:37.807Z,3.26
2017-05-10T05:10:48.079Z,3.05
2017-05-10T05:11:58.023Z,3.05
2017-05-10T05:13:08.284Z,2.9
2017-05-10T05:14:18.231Z,2.9
2017-05-10T05:15:28.496Z,2.93
2017-05-10T05:16:38.750Z,2.77
2017-05-10T05:17:48.695Z,2.83
2017-05-10T05:18:58.951Z,2.88
2017-05-10T05:20:08.889Z,2.88
2017-05-10T05:21:19.149Z,2.85
2017-05-10T05:22:29.418Z,2.85
2017-05-10T05:23:39.678Z,2.76
2017-05-10T05:24:49.628Z,2.72
2017-05-10T05:25:59.896Z,2.76
2017-05-10T05:27:09.839Z,2.85
2017-05-10T05:28:20.100Z,2.72
2017-05-10T05:29:30.364Z,2.7
2017-05-10T05:30:40.627Z,2.69
2017-05-10T05:31:50.892Z,2.61
2017-05-10T05:33:01.151Z,2.61
2017-05-10T05:34:11.407Z,2.59
2017-05-10T05:35:21.664Z,2.61
2017-05-10T05:36:31.923Z,2.65
2017-05-10T05:37:42.180Z,2.83
2017-05-10T05:38:52.139Z,3
2017-05-10T05:40:02.087Z,2.97
2017-05-10T05:41:12.037Z,3.11
2017-05-10T05:42:22.301Z,3.31
2017-05-10T05:43:32.571Z,3.37
2017-05-10T05:44:42.518Z,3.5
2017-05-10T05:45:52.780Z,3.58
2017-05-10T05:47:03.050Z,3.73
2017-05-10T05:48:12.997Z,3.76
2017-05-10T05:49:22.952Z,3.94
2017-05-10T05:50:33.222Z,4.04
2017-05-10T05:51:43.485Z,4.09
2017-05-10T05:52:53.434Z,4.25
2017-05-10T05:54:03.374Z,4.36
2017-05-10T05:55:13.321Z,4.42
2017-05-10T05:56:22.990Z,4.5
2017-05-10T05:57:33.245Z,4.5
2017-05-10T05:58:43.513Z,4.56
2017-05-10T05:59:53.778Z,4.48
2017-05-10T06:01:04.040Z,4.66
2017-05-10T06:02:14.301Z,4.61
2017-05-10T06:03:24.576Z,4.68
2017-05-10T06:04:34.841Z,4.71
2017-05-10T06:05:45.100Z,4.76
2017-05-10T06:06:55.352Z,4.79
2017-05-10T06:08:05.615Z,4.95
2017-05-10T06:09:15.248Z,5.05
2017-05-10T06:10:25.505Z,5.01
2017-05-10T06:11:35.762Z,5.15
2017-05-10T06:12:46.021Z,5.2
2017-05-10T06:13:55.971Z,5.19
2017-05-10T06:15:06.239Z,5.19
2017-05-10T06:16:16.188Z,5.2
2017-05-10T06:17:26.443Z,5.33
2017-05-10T06:18:36.389Z,5.34
2017-05-10T06:19:46.646Z,5.46
2017-05-10T06:20:56.931Z,5.52
2017-05-10T06:22:07.195Z,5.64
2017-05-10T06:23:16.830Z,5.54
2017-05-10T06:24:27.094Z,5.62
2017-05-10T06:25:37.406Z,5.64
2017-05-10T06:26:47.039Z,5.7
2017-05-10T06:27:57.307Z,5.8
2017-05-10T06:29:07.572Z,5.79
2017-05-10T06:30:17.836Z,5.69
2017-05-10T06:31:28.097Z,5.87
2017-05-10T06:32:38.047Z,5.81
2017-05-10T06:33:48.309Z,5.92
2017-05-10T06:34:58.257Z,5.9
2017-05-10T06:36:08.232Z,5.81
2017-05-10T06:37:18.492Z,5.79
2017-05-10T06:38:28.762Z,5.74
2017-05-10T06:39:39.028Z,5.77
2017-05-10T06:40:48.972Z,5.88
2017-05-10T06:41:59.243Z,5.87
2017-05-10T06:43:08.876Z,5.84
2017-05-10T06:44:18.194Z,5.84
2017-05-10T06:45:28.454Z,5.97
2017-05-10T06:46:38.096Z,5.92
2017-05-10T06:47:48.043Z,5.83
2017-05-10T06:48:58.313Z,5.91
2017-05-10T06:50:08.572Z,5.9
2017-05-10T06:51:18.204Z,5.98
2017-05-10T06:52:28.150Z,5.99
2017-05-10T06:53:38.101Z,6.02
2017-05-10T06:54:48.045Z,5.83
2017-05-10T06:55:58.307Z,5.98
2017-05-10T06:57:08.569Z,6.02
2017-05-10T06:58:18.824Z,6.1
2017-05-10T06:59:29.086Z,6.15
2017-05-10T07:00:39.600Z,6.2
2017-05-10T07:01:49.874Z,6.39
2017-05-10T07:02:59.833Z,6.39
2017-05-10T07:04:10.145Z,6.52
2017-05-10T07:05:20.399Z,6.62
2017-05-10T07:06:30.664Z,6.53
2017-05-10T07:07:40.929Z,6.6
2017-05-10T07:08:51.194Z,6.47
2017-05-10T07:10:01.464Z,6.53
2017-05-10T07:11:11.427Z,6.68
2017-05-10T07:12:21.689Z,6.62
2017-05-10T07:13:31.974Z,6.64
2017-05-10T07:14:42.277Z,6.6
2017-05-10T07:15:52.547Z,6.57
2017-05-10T07:17:02.821Z,6.72
2017-05-10T07:18:13.084Z,6.77
2017-05-10T07:19:23.041Z,6.86
2017-05-10T07:20:33.310Z,6.77
2017-05-10T07:21:42.940Z,6.89
2017-05-10T07:22:52.888Z,6.95
2017-05-10T07:24:03.153Z,7.07
2017-05-10T07:25:13.102Z,7.1
2017-05-10T07:26:23.054Z,7.08
2017-05-10T07:27:33.326Z,7.14
2017-05-10T07:28:43.590Z,7.13
2017-05-10T07:29:53.849Z,7.21
2017-05-10T07:31:04.113Z,7.25
2017-05-10T07:32:14.378Z,7.13
2017-05-10T07:33:24.324Z,7.22
2017-05-10T07:34:34.584Z,7.13
2017-05-10T07:35:44.833Z,7.14
2017-05-10T07:36:55.095Z,7.28
2017-05-10T07:38:05.044Z,7.39
2017-05-10T07:39:15.326Z,7.41
2017-05-10T07:40:25.598Z,7.4
2017-05-10T07:41:35.862Z,7.4
2017-05-10T07:42:45.490Z,7.36
2017-05-10T07:43:55.759Z,7.43
2017-05-10T07:45:06.018Z,7.47
2017-05-10T07:46:16.278Z,7.56
2017-05-10T07:47:26.238Z,7.67
2017-05-10T07:48:36.501Z,7.84
2017-05-10T07:49:46.762Z,7.88
2017-05-10T07:50:57.022Z,7.87
2017-05-10T07:52:07.285Z,7.88
2017-05-10T07:53:17.286Z,7.93
2017-05-10T07:54:27.560Z,8.03
2017-05-10T07:55:37.826Z,7.96
2017-05-10T07:56:48.112Z,8.02
2017-05-10T07:57:58.390Z,8.05
2017-05-10T07:59:07.712Z,8.16
2017-05-10T08:00:17.353Z,8.2
2017-05-10T08:01:27.629Z,8.31
2017-05-10T08:02:37.293Z,8.26
2017-05-10T08:03:47.572Z,8.26
2017-05-10T08:04:57.913Z,8.31
2017-05-10T08:06:08.178Z,8.31
2017-05-10T08:07:18.441Z,8.23
2017-05-10T08:08:28.712Z,8.18
2017-05-10T08:09:38.982Z,8.18
2017-05-10T08:10:49.562Z,8.21
2017-05-10T08:11:59.523Z,8.28
2017-05-10T08:13:09.484Z,8.27
2017-05-10T08:14:19.756Z,8.23
2017-05-10T08:15:30.022Z,8.17
2017-05-10T08:16:40.024Z,8.18
2017-05-10T08:17:50.293Z,8.08
2017-05-10T08:19:00.259Z,8.03
2017-05-10T08:20:09.898Z,8.11
2017-05-10T08:21:19.849Z,8.17
2017-05-10T08:22:30.114Z,8.2
2017-05-10T08:23:40.381Z,8.26
2017-05-10T08:24:50.644Z,8.21
2017-05-10T08:26:00.910Z,8.17
2017-05-10T08:27:10.867Z,8.2
2017-05-10T08:28:20.812Z,8.21
2017-05-10T08:29:31.122Z,8.11
2017-05-10T08:30:41.066Z,8.2
2017-05-10T08:31:51.327Z,8.16
2017-05-10T08:33:01.593Z,8.24
2017-05-10T08:34:11.545Z,8.23
2017-05-10T08:35:21.805Z,8.21
2017-05-10T08:36:31.764Z,8.31
2017-05-10T08:37:42.029Z,8.38
2017-05-10T08:38:52.292Z,8.41
2017-05-10T08:40:02.548Z,8.6
2017-05-10T08:41:12.807Z,8.6
2017-05-10T08:42:22.453Z,8.69
2017-05-10T08:43:32.735Z,8.57
2017-05-10T08:44:43.004Z,8.42
2017-05-10T08:45:53.268Z,8.27
2017-05-10T08:47:03.534Z,8.36
2017-05-10T08:48:13.175Z,8.53
2017-05-10T08:49:23.447Z,8.57
2017-05-10T08:50:33.400Z,8.66
2017-05-10T08:51:43.351Z,8.75
2017-05-10T08:52:53.618Z,8.75
2017-05-10T08:54:03.906Z,8.93
2017-05-10T08:55:14.165Z,8.78
2017-05-10T08:56:24.431Z,8.81
2017-05-10T08:57:34.701Z,8.89
2017-05-10T08:58:44.653Z,8.77
2017-05-10T08:59:54.938Z,8.75
2017-05-10T09:01:05.204Z,8.69
2017-05-10T09:02:15.160Z,8.77
2017-05-10T09:03:25.442Z,8.75
2017-05-10T09:04:35.709Z,8.68
2017-05-10T09:05:45.969Z,8.49
2017-05-10T09:06:55.921Z,8.49
2017-05-10T09:08:06.189Z,8.46
2017-05-10T09:09:16.457Z,8.38
2017-05-10T09:10:26.729Z,8.45
2017-05-10T09:11:36.988Z,8.49
2017-05-10T09:12:46.938Z,8.41
2017-05-10T09:13:56.895Z,8.31
2017-05-10T09:15:07.166Z,8.28
2017-05-10T09:16:17.117Z,8.21
2017-05-10T09:17:27.376Z,8.16
2017-05-10T09:18:37.647Z,8.18
2017-05-10T09:19:47.918Z,8.18
2017-05-10T09:20:58.177Z,8.2
2017-05-10T09:22:08.128Z,8.23
2017-05-10T09:23:18.079Z,8.09
2017-05-10T09:24:28.343Z,8.17
2017-05-10T09:25:38.296Z,8.18
2017-05-10T09:26:48.555Z,8.2
2017-05-10T09:27:58.533Z,8.42
2017-05-10T09:29:08.800Z,8.36
2017-05-10T09:30:18.759Z,8.45
2017-05-10T09:31:29.019Z,8.46
2017-05-10T09:32:38.969Z,8.52
2017-05-10T09:33:48.919Z,8.56
2017-05-10T09:34:59.185Z,8.54
2017-05-10T09:36:08.821Z,8.57
2017-05-10T09:37:18.765Z,8.54
2017-05-10T09:38:29.037Z,8.38
2017-05-10T09:39:38.984Z,8.49
2017-05-10T09:40:48.950Z,8.39
2017-05-10T09:41:59.224Z,8.32
2017-05-10T09:43:09.292Z,8.32
2017-05-10T09:44:19.585Z,8.32
2017-05-10T09:45:29.533Z,8.41
2017-05-10T09:46:39.792Z,8.39
2017-05-10T09:47:50.062Z,8.35
2017-05-10T09:49:00.006Z,8.35
2017-05-10T09:50:09.956Z,8.18
2017-05-10T09:51:19.904Z,8.31
2017-05-10T09:52:29.860Z,8.2
2017-05-10T09:53:40.120Z,8.26
2017-05-10T09:54:50.389Z,8.27
2017-05-10T09:56:00.663Z,8.17
2017-05-10T09:57:10.613Z,8.11
2017-05-10T09:58:20.265Z,8.08
2017-05-10T09:59:30.526Z,8.14
2017-05-10T10:00:40.785Z,7.88
2017-05-10T10:01:50.734Z,7.78
2017-05-10T10:03:00.999Z,7.83
2017-05-10T10:04:10.642Z,7.81
2017-05-10T10:05:20.597Z,7.7
2017-05-10T10:06:30.549Z,7.8
2017-05-10T10:07:40.815Z,7.78
2017-05-10T10:08:50.764Z,7.8
2017-05-10T10:10:01.034Z,7.78
2017-05-10T10:11:10.358Z,7.88
2017-05-10T10:12:20.309Z,7.91
2017-05-10T10:13:30.573Z,7.8
2017-05-10T10:14:40.843Z,7.84
2017-05-10T10:15:50.791Z,7.78
2017-05-10T10:17:00.741Z,7.69
2017-05-10T10:18:10.697Z,7.8
2017-05-10T10:19:20.964Z,7.88
2017-05-10T10:20:30.599Z,7.91
2017-05-10T10:21:40.864Z,8.05
2017-05-10T10:22:50.820Z,8.18
2017-05-10T10:24:00.786Z,8.26
2017-05-10T10:25:10.743Z,8.27
2017-05-10T10:26:20.687Z,8.35
2017-05-10T10:27:30.954Z,8.36
2017-05-10T10:28:41.213Z,8.36
2017-05-10T10:29:51.479Z,8.23
2017-05-10T10:31:01.737Z,7.95
2017-05-10T10:32:11.690Z,7.96
2017-05-10T10:33:21.952Z,7.8
2017-05-10T10:34:32.331Z,7.81
2017-05-10T10:35:42.594Z,7.72
2017-05-10T10:36:52.564Z,7.74
2017-05-10T10:38:02.824Z,7.9
2017-05-10T10:39:13.081Z,7.87
2017-05-10T10:40:23.346Z,7.88
2017-05-10T10:41:33.613Z,7.74
2017-05-10T10:42:44.174Z,7.33
2017-05-10T10:43:54.433Z,7.19
2017-05-10T10:45:04.693Z,7.13
2017-05-10T10:46:15.150Z,7.03
2017-05-10T10:47:25.103Z,7.08
2017-05-10T10:48:39.615Z,6.93
2017-05-10T10:49:49.561Z,7
2017-05-10T10:50:59.826Z,7
2017-05-10T10:52:08.832Z,7.1
2017-05-10T10:53:18.152Z,7.13
2017-05-10T10:54:30.101Z,7.11
2017-05-10T10:55:40.362Z,7.22
2017-05-10T10:56:50.622Z,7.15
2017-05-10T10:58:00.580Z,7.14
2017-05-10T10:59:10.839Z,7.23
2017-05-10T11:00:21.100Z,7.43
2017-05-10T11:01:31.369Z,7.62
2017-05-10T11:02:41.623Z,7.84
2017-05-10T11:03:51.267Z,7.87
2017-05-10T11:05:01.540Z,8.16
2017-05-10T11:06:11.804Z,8.5
2017-05-10T11:07:21.750Z,8.68
2017-05-10T11:08:32.011Z,8.71
2017-05-10T11:09:42.280Z,8.86
2017-05-10T11:10:52.541Z,9.03
2017-05-10T11:12:02.810Z,8.96
2017-05-10T11:13:12.776Z,8.95
2017-05-10T11:14:22.732Z,8.89
2017-05-10T11:15:32.997Z,8.79
2017-05-10T11:16:43.271Z,8.75
2017-05-10T11:17:53.530Z,8.87
2017-05-10T11:19:03.479Z,9.02
2017-05-10T11:20:13.428Z,9.09
2017-05-10T11:21:23.060Z,9.11
2017-05-10T11:22:33.323Z,9.09
2017-05-10T11:23:43.585Z,9.05
2017-05-10T11:24:53.843Z,9.11
2017-05-10T11:26:04.114Z,9.19
2017-05-10T11:27:14.078Z,9.11
2017-05-10T11:28:24.335Z,9.21
2017-05-10T11:29:34.285Z,8.82
2017-05-10T11:30:44.544Z,8.75
2017-05-10T11:31:54.806Z,8.42
2017-05-10T11:33:04.764Z,8.42
2017-05-10T11:34:15.045Z,8.41
2017-05-10T11:35:25.316Z,8.54
2017-05-10T11:36:35.584Z,8.63
2017-05-10T11:37:45.219Z,8.57
2017-05-10T11:38:55.485Z,8.53
2017-05-10T11:40:05.760Z,8.39
2017-05-10T11:41:15.393Z,8.35
2017-05-10T11:42:25.345Z,8.21
2017-05-10T11:43:35.618Z,8.21
2017-05-10T11:44:45.882Z,8.24
2017-05-10T11:45:56.144Z,8.42
2017-05-10T11:47:06.095Z,8.42
2017-05-10T11:48:16.040Z,8.24
2017-05-10T11:49:26.303Z,8.39
2017-05-10T11:50:36.565Z,8.28
2017-05-10T11:51:46.828Z,8.21
2017-05-10T11:52:56.778Z,8.21
2017-05-10T11:54:06.734Z,8.17
2017-05-10T11:55:16.688Z,8.05
2017-05-10T11:56:26.636Z,8.02
2017-05-10T11:57:36.906Z,8.03
2017-05-10T11:58:47.172Z,8.2
2017-05-10T11:59:57.437Z,7.96
2017-05-10T12:01:07.077Z,7.64
2017-05-10T12:02:17.345Z,7.62
2017-05-10T12:03:27.618Z,7.61
2017-05-10T12:04:38.186Z,7.53
2017-05-10T12:05:48.446Z,7.51
2017-05-10T12:06:58.702Z,7.5
2017-05-10T12:08:08.335Z,7.36
2017-05-10T12:09:18.602Z,7.33
2017-05-10T12:10:28.804Z,7.21
2017-05-10T12:11:39.073Z,7.15
2017-05-10T12:12:49.027Z,7.25
2017-05-10T12:13:59.288Z,7.26
2017-05-10T12:15:09.240Z,7.25
2017-05-10T12:16:21.483Z,7.18
2017-05-10T12:17:31.754Z,7.15
2017-05-10T12:18:42.014Z,7.15
2017-05-10T12:19:51.645Z,7.22
2017-05-10T12:21:01.910Z,7.26
2017-05-10T12:22:12.427Z,7.03
2017-05-10T12:23:22.069Z,6.96
2017-05-10T12:24:32.335Z,6.78
2017-05-10T12:25:42.602Z,6.83
2017-05-10T12:26:52.881Z,6.75
2017-05-10T12:28:02.825Z,6.75
2017-05-10T12:29:12.782Z,6.68
2017-05-10T12:30:23.046Z,6.77
2017-05-10T12:31:32.987Z,6.82
2017-05-10T12:32:42.935Z,6.93
2017-05-10T12:33:53.194Z,7.05
2017-05-10T12:35:03.462Z,7.07
2017-05-10T12:36:13.414Z,7.05
2017-05-10T12:37:23.357Z,7.05
2017-05-10T12:38:33.621Z,7.11
2017-05-10T12:39:43.566Z,7.18
2017-05-10T12:40:53.831Z,7.21
2017-05-10T12:42:04.091Z,7.14
2017-05-10T12:43:14.041Z,7.07
2017-05-10T12:44:24.308Z,7.07
2017-05-10T12:45:34.567Z,7.04
2017-05-10T12:46:44.833Z,7.03
2017-05-10T12:47:55.098Z,6.89
2017-05-10T12:49:05.050Z,7.03
2017-05-10T12:50:15.004Z,7.05
2017-05-10T12:51:25.263Z,7.11
2017-05-10T12:52:35.518Z,7.21
2017-05-10T12:53:45.467Z,7.05
2017-05-10T12:54:55.733Z,7.11
2017-05-10T12:56:05.679Z,6.74
2017-05-10T12:57:15.938Z,6.49
2017-05-10T12:58:26.209Z,5.94
2017-05-10T12:59:36.477Z,5.9
2017-05-10T13:00:46.742Z,5.79
2017-05-10T13:01:57.002Z,5.55
2017-05-10T13:03:07.263Z,5.51
2017-05-10T13:04:17.205Z,5.56
2017-05-10T13:05:27.469Z,5.52
2017-05-10T13:06:37.728Z,5.56
2017-05-10T13:07:47.980Z,5.56
2017-05-10T13:08:58.241Z,5.56
2017-05-10T13:10:08.499Z,5.58
2017-05-10T13:11:18.759Z,5.61
2017-05-10T13:12:28.392Z,5.74
2017-05-10T13:13:38.650Z,5.87
2017-05-10T13:14:48.907Z,6.01
2017-05-10T13:15:59.159Z,6.26
2017-05-10T13:17:09.107Z,6.25
2017-05-10T13:18:19.050Z,6.39
2017-05-10T13:19:28.996Z,6.6
2017-05-10T13:20:39.260Z,6.59
2017-05-10T13:21:49.210Z,6.71
2017-05-10T13:22:59.496Z,6.8
2017-05-10T13:24:09.757Z,6.82
2017-05-10T13:25:20.021Z,6.72
2017-05-10T13:26:30.279Z,6.78
2017-05-10T13:27:40.232Z,6.92
2017-05-10T13:28:50.491Z,6.96
2017-05-10T13:30:00.750Z,7.29
2017-05-10T13:31:11.052Z,7.39
2017-05-10T13:32:21.312Z,7.64
2017-05-10T13:33:30.942Z,7.7
2017-05-10T13:34:40.893Z,7.8
2017-05-10T13:35:51.157Z,7.87
2017-05-10T13:37:01.417Z,8.09
2017-05-10T13:38:11.365Z,8.23
2017-05-10T13:39:21.627Z,8.45
2017-05-10T13:40:31.895Z,8.69
2017-05-10T13:41:42.165Z,8.79
2017-05-10T13:42:52.422Z,8.68
2017-05-10T13:44:02.683Z,8.68
2017-05-10T13:45:12.637Z,8.87
2017-05-10T13:46:22.892Z,8.96
2017-05-10T13:47:32.840Z,9.13
2017-05-10T13:48:42.794Z,9.27
2017-05-10T13:49:53.059Z,9.3
2017-05-10T13:51:03.322Z,9.37
2017-05-10T13:52:12.954Z,9.3
2017-05-10T13:53:23.211Z,9.03
2017-05-10T13:54:33.473Z,9.03
2017-05-10T13:55:43.739Z,8.97
2017-05-10T13:56:54.010Z,8.97
2017-05-10T13:58:04.270Z,8.81
2017-05-10T13:59:14.535Z,8.66
2017-05-10T14:00:24.797Z,8.28
2017-05-10T14:01:34.747Z,8.06
2017-05-10T14:02:45.008Z,7.75
2017-05-10T14:03:55.002Z,7.64
2017-05-10T14:05:05.266Z,7.4
2017-05-10T14:06:15.230Z,7.29
2017-05-10T14:07:24.864Z,7.33
2017-05-10T14:08:34.816Z,7.23
2017-05-10T14:09:44.762Z,7
2017-05-10T14:10:55.018Z,7.01
2017-05-10T14:12:05.277Z,7.14
2017-05-10T14:13:15.538Z,7.04
2017-05-10T14:14:25.488Z,7.14
2017-05-10T14:15:35.749Z,7.13
2017-05-10T14:16:46.010Z,7.32
2017-05-10T14:17:56.267Z,7.48
2017-05-10T14:19:06.530Z,7.64
2017-05-10T14:20:16.479Z,7.84
2017-05-10T14:21:26.428Z,8.05
2017-05-10T14:22:36.696Z,8.23
2017-05-10T14:23:46.952Z,8.36
2017-05-10T14:25:02.408Z,8.56
2017-05-10T14:26:12.359Z,8.77
2017-05-10T14:27:22.613Z,8.96
2017-05-10T14:28:32.872Z,9.15
2017-05-10T14:29:42.822Z,9.33
2017-05-10T14:30:53.082Z,9.19
2017-05-10T14:32:03.029Z,8.95
2017-05-10T14:33:13.298Z,8.89
2017-05-10T14:34:23.559Z,8.86
2017-05-10T14:35:33.514Z,8.9
2017-05-10T14:36:43.461Z,8.9
2017-05-10T14:37:53.414Z,8.78
2017-05-10T14:39:03.684Z,8.72
2017-05-10T14:40:13.994Z,8.57
2017-05-10T14:41:23.946Z,8.56
2017-05-10T14:42:34.220Z,8.36
2017-05-10T14:43:44.190Z,8.23
2017-05-10T14:44:54.467Z,8.21
2017-05-10T14:46:04.413Z,8.06
2017-05-10T14:47:14.678Z,7.93
2017-05-10T14:48:24.938Z,7.55
2017-05-10T14:49:35.195Z,7.19
2017-05-10T14:50:44.520Z,7.04
2017-05-10T14:51:54.789Z,6.89
2017-05-10T14:53:05.068Z,6.74
2017-05-10T14:54:14.705Z,6.6
2017-05-10T14:55:24.663Z,6.49
2017-05-10T14:56:34.927Z,6.19
2017-05-10T14:57:45.194Z,6.05
2017-05-10T14:58:55.472Z,5.95
2017-05-10T15:00:05.738Z,5.95
2017-05-10T15:01:16.006Z,5.94
2017-05-10T15:02:25.635Z,5.97
2017-05-10T15:03:35.267Z,5.97
2017-05-10T15:04:45.532Z,6.05
2017-05-10T15:05:55.794Z,6.13
2017-05-10T15:07:06.060Z,6.19
2017-05-10T15:08:16.008Z,6.36
2017-05-10T15:09:26.263Z,6.44
2017-05-10T15:10:36.529Z,6.49
2017-05-10T15:11:46.792Z,6.62
2017-05-10T15:12:57.052Z,6.74
2017-05-10T15:14:07.305Z,6.87
2017-05-10T15:15:17.292Z,6.87
2017-05-10T15:16:27.553Z,6.92
2017-05-10T15:17:37.506Z,7.01
2017-05-10T15:18:47.462Z,6.9
2017-05-10T15:19:57.408Z,6.9
2017-05-10T15:21:07.357Z,6.86
2017-05-10T15:22:17.620Z,6.93
2017-05-10T15:23:27.563Z,6.89
2017-05-10T15:24:37.824Z,6.92
2017-05-10T15:25:48.078Z,6.9
2017-05-10T15:26:58.343Z,6.72
2017-05-10T15:28:08.617Z,6.64
2017-05-10T15:29:18.566Z,6.46
2017-05-10T15:30:28.514Z,6.47
2017-05-10T15:31:38.148Z,6.25
2017-05-10T15:32:47.780Z,6.09
2017-05-10T15:33:58.043Z,5.81
2017-05-10T15:35:07.993Z,5.56
2017-05-10T15:36:18.252Z,5.28
2017-05-10T15:37:28.550Z,5.02